createdAt,value
2018-06-23T00:04:52.028Z,11.90
2018-06-23T00:07:20.498Z,11.90
2018-06-23T00:09:49.782Z,11.90
2018-06-23T00:12:18.254Z,11.90
2018-06-23T00:14:46.845Z,11.90
2018-06-23T00:17:15.298Z,11.80
2018-06-23T00:19:43.919Z,11.80
2018-06-23T00:22:12.384Z,11.80
2018-06-23T00:24:40.875Z,11.80
2018-06-23T00:27:09.328Z,11.70
2018-06-23T00:29:38.259Z,11.70
2018-06-23T00:32:06.753Z,11.70
2018-06-23T00:34:35.176Z,11.70
2018-06-23T00:37:03.649Z,11.70
2018-06-23T00:39:32.123Z,11.70
2018-06-23T00:42:00.566Z,11.70
2018-06-23T00:44:29.051Z,11.70
2018-06-23T00:46:57.491Z,11.70
2018-06-23T00:49:25.985Z,11.70
2018-06-23T00:51:55.007Z,11.70
2018-06-23T00:54:24.439Z,11.70
2018-06-23T00:56:52.897Z,11.70
2018-06-23T00:59:32.736Z,11.70
2018-06-23T01:02:01.167Z,11.70
2018-06-23T01:04:29.609Z,11.70
2018-06-23T01:06:58.094Z,11.70
2018-06-23T01:09:26.570Z,11.70
2018-06-23T01:11:55.092Z,11.70
2018-06-23T01:16:51.724Z,11.70
2018-06-23T01:19:20.191Z,11.70
2018-06-23T01:21:48.735Z,11.70
2018-06-23T01:24:17.280Z,11.70
2018-06-23T01:26:45.732Z,11.70
2018-06-23T01:29:14.286Z,11.70
2018-06-23T01:31:43.080Z,11.70
2018-06-23T01:34:11.555Z,11.70
2018-06-23T01:36:40.012Z,11.70
2018-06-23T01:39:10.911Z,11.70
2018-06-23T01:41:39.627Z,11.60
2018-06-23T01:44:08.127Z,11.60
2018-06-23T01:46:36.761Z,11.60
2018-06-23T01:49:05.654Z,11.60
2018-06-23T01:51:34.371Z,11.60
2018-06-23T01:54:02.861Z,11.60
2018-06-23T01:56:31.363Z,11.60
2018-06-23T01:58:59.823Z,11.60
2018-06-23T02:01:28.319Z,11.60
2018-06-23T02:03:57.313Z,11.60
2018-06-23T02:06:25.776Z,11.50
2018-06-23T02:08:54.384Z,11.50
2018-06-23T02:11:22.906Z,11.50
2018-06-23T02:13:56.602Z,11.40
2018-06-23T02:16:30.493Z,11.50
2018-06-23T02:19:04.261Z,11.40
2018-06-23T02:21:38.158Z,11.50
2018-06-23T02:24:12.005Z,11.50
2018-06-23T02:26:45.682Z,11.40
2018-06-23T02:29:19.764Z,11.50
2018-06-23T02:31:53.449Z,11.50
2018-06-23T02:34:27.228Z,11.50
2018-06-23T02:36:55.732Z,11.40
2018-06-23T02:39:24.210Z,11.40
2018-06-23T02:41:52.744Z,11.40
2018-06-23T02:44:21.282Z,11.40
2018-06-23T02:46:49.750Z,11.40
2018-06-23T02:49:18.218Z,11.40
2018-06-23T02:51:46.680Z,11.40
2018-06-23T02:54:15.122Z,11.40
2018-06-23T02:56:43.610Z,11.40
2018-06-23T02:59:12.056Z,11.40
2018-06-23T03:01:40.546Z,11.40
2018-06-23T03:04:09.080Z,11.40
2018-06-23T03:06:37.550Z,11.40
2018-06-23T03:09:06.854Z,11.40
2018-06-23T03:11:35.332Z,11.30
2018-06-23T03:14:03.840Z,11.30
2018-06-23T03:16:32.328Z,11.30
2018-06-23T03:19:00.784Z,11.30
2018-06-23T03:21:29.242Z,11.20
2018-06-23T03:23:57.699Z,11.20
2018-06-23T03:26:26.146Z,11.20
2018-06-23T03:28:54.629Z,11.30
2018-06-23T03:31:23.134Z,11.20
2018-06-23T03:33:51.704Z,11.20
2018-06-23T03:36:20.210Z,11.10
2018-06-23T03:38:48.865Z,11.10
2018-06-23T03:41:17.454Z,11.10
2018-06-23T03:43:46.011Z,11.10
2018-06-23T03:46:14.580Z,11.10
2018-06-23T03:48:43.132Z,11.10
2018-06-23T03:51:11.613Z,11.10
2018-06-23T03:53:40.116Z,11.00
2018-06-23T03:56:08.587Z,11.10
2018-06-23T03:58:37.126Z,11.10
2018-06-23T04:01:07.231Z,11.10
2018-06-23T04:03:36.186Z,11.10
2018-06-23T04:06:04.731Z,11.10
2018-06-23T04:08:33.781Z,11.10
2018-06-23T04:11:02.475Z,11.20
2018-06-23T04:13:31.166Z,11.10
2018-06-23T04:15:59.654Z,11.20
2018-06-23T04:18:28.101Z,11.20
2018-06-23T04:20:57.064Z,11.30
2018-06-23T04:23:25.488Z,11.30
2018-06-23T04:28:22.398Z,11.30
2018-06-23T04:30:51.113Z,11.40
2018-06-23T04:33:19.633Z,11.40
2018-06-23T04:40:44.418Z,11.50
2018-06-23T04:43:12.885Z,11.50
2018-06-23T04:45:41.354Z,11.50
2018-06-23T04:50:38.033Z,11.50
2018-06-23T04:53:06.519Z,11.60
2018-06-23T04:55:34.955Z,11.60
2018-06-23T04:58:03.415Z,11.60
2018-06-23T05:00:31.935Z,11.60
2018-06-23T05:03:00.397Z,11.70
2018-06-23T05:05:28.885Z,11.70
2018-06-23T05:07:57.341Z,11.80
2018-06-23T05:10:25.831Z,11.80
2018-06-23T05:12:54.276Z,11.90
2018-06-23T05:15:22.750Z,12.00
2018-06-23T05:17:51.195Z,12.00
2018-06-23T05:20:19.705Z,12.00
2018-06-23T05:22:48.167Z,12.10
2018-06-23T05:25:16.646Z,12.20
2018-06-23T05:27:45.194Z,12.30
2018-06-23T05:30:13.676Z,12.30
2018-06-23T05:35:10.355Z,12.30
2018-06-23T05:37:38.864Z,12.30
2018-06-23T05:40:07.336Z,12.20
2018-06-23T05:42:35.830Z,12.20
2018-06-23T05:45:04.405Z,12.20
2018-06-23T05:47:32.889Z,12.30
2018-06-23T05:50:01.314Z,12.40
2018-06-23T05:52:29.755Z,12.40
2018-06-23T05:57:26.449Z,12.60
2018-06-23T05:59:55.024Z,12.70
2018-06-23T06:02:24.188Z,12.80
2018-06-23T06:04:52.620Z,13.00
2018-06-23T06:07:21.114Z,13.20
2018-06-23T06:09:49.624Z,13.30
2018-06-23T06:12:18.177Z,13.20
2018-06-23T06:14:46.702Z,13.30
2018-06-23T06:17:30.763Z,13.40
2018-06-23T06:22:29.687Z,13.80
2018-06-23T06:24:58.511Z,13.90
2018-06-23T06:27:27.061Z,14.00
2018-06-23T06:29:56.091Z,14.10
2018-06-23T06:32:25.073Z,14.20
2018-06-23T06:34:53.860Z,14.20
2018-06-23T06:37:22.458Z,14.30
2018-06-23T06:39:50.996Z,14.40
2018-06-23T06:42:19.658Z,14.50
2018-06-23T06:44:48.220Z,14.50
2018-06-23T06:47:18.361Z,14.50
2018-06-23T06:49:46.959Z,14.50
2018-06-23T06:52:16.053Z,14.30
2018-06-23T06:54:45.046Z,14.20
2018-06-23T06:57:13.607Z,14.10
2018-06-23T06:59:42.089Z,14.10
2018-06-23T07:02:10.583Z,14.20
2018-06-23T07:07:07.220Z,14.30
2018-06-23T07:09:35.692Z,14.40
2018-06-23T07:12:04.320Z,14.50
2018-06-23T07:14:32.763Z,14.40
2018-06-23T07:17:01.262Z,14.50
2018-06-23T07:19:29.878Z,14.40
2018-06-23T07:21:58.339Z,14.30
2018-06-23T07:24:27.315Z,14.30
2018-06-23T07:26:55.801Z,14.30
2018-06-23T07:29:24.315Z,14.40
2018-06-23T07:31:53.875Z,14.40
2018-06-23T07:34:22.481Z,14.30
2018-06-23T07:36:51.049Z,14.40
2018-06-23T07:39:19.575Z,14.40
2018-06-23T07:41:48.024Z,14.40
2018-06-23T07:44:16.478Z,14.50
2018-06-23T07:46:45.005Z,14.70
2018-06-23T07:49:13.627Z,14.70
2018-06-23T07:51:42.099Z,14.60
2018-06-23T07:54:10.570Z,14.70
2018-06-23T07:56:39.074Z,14.90
2018-06-23T07:59:07.666Z,15.10
2018-06-23T08:01:36.227Z,15.10
2018-06-23T08:04:04.696Z,15.20
2018-06-23T08:06:33.193Z,15.30
2018-06-23T08:09:01.812Z,15.30
2018-06-23T08:11:30.311Z,15.30
2018-06-23T08:13:58.885Z,15.20
2018-06-23T08:16:27.879Z,15.10
2018-06-23T08:18:56.375Z,15.20
2018-06-23T08:21:24.987Z,15.20
2018-06-23T08:23:54.121Z,15.30
2018-06-23T08:26:22.821Z,15.30
2018-06-23T08:28:51.190Z,15.20
2018-06-23T08:31:19.753Z,15.20
2018-06-23T08:33:48.949Z,15.20
2018-06-23T08:36:17.619Z,15.30
2018-06-23T08:38:46.284Z,15.20
2018-06-23T08:41:15.033Z,15.30
2018-06-23T08:43:43.684Z,15.40
2018-06-23T08:46:12.155Z,15.50
2018-06-23T08:48:40.817Z,15.60
2018-06-23T08:51:09.706Z,15.60
2018-06-23T08:53:38.210Z,15.50
2018-06-23T08:56:06.732Z,15.60
2018-06-23T08:58:35.113Z,15.60
2018-06-23T09:01:03.638Z,15.70
2018-06-23T09:03:32.309Z,15.90
2018-06-23T09:06:00.793Z,16.10
2018-06-23T09:08:29.267Z,16.30
2018-06-23T09:10:57.839Z,16.30
2018-06-23T09:13:26.956Z,16.40
2018-06-23T09:15:56.002Z,16.50
2018-06-23T09:18:24.476Z,16.50
2018-06-23T09:20:52.989Z,16.50
2018-06-23T09:23:22.192Z,16.60
2018-06-23T09:25:50.803Z,16.80
2018-06-23T09:28:19.212Z,17.10
2018-06-23T09:30:47.689Z,17.20
2018-06-23T09:33:16.189Z,17.20
2018-06-23T09:35:44.716Z,17.00
2018-06-23T09:38:13.191Z,17.00
2018-06-23T09:40:42.704Z,17.00
2018-06-23T09:43:11.326Z,17.00
2018-06-23T09:45:39.841Z,16.90
2018-06-23T09:48:08.409Z,16.80
2018-06-23T09:50:36.945Z,16.70
2018-06-23T09:53:05.471Z,16.60
2018-06-23T09:55:34.124Z,16.50
2018-06-23T09:58:02.584Z,16.70
2018-06-23T10:00:31.524Z,16.90
2018-06-23T10:03:01.699Z,17.00
2018-06-23T10:05:30.512Z,17.10
2018-06-23T10:07:59.996Z,17.00
2018-06-23T10:10:29.187Z,17.00
2018-06-23T10:15:26.075Z,17.20
2018-06-23T10:17:54.640Z,17.20
2018-06-23T10:22:51.575Z,17.40
2018-06-23T10:25:20.135Z,17.30
2018-06-23T10:27:48.662Z,17.20
2018-06-23T10:30:17.150Z,17.10
2018-06-23T10:32:45.598Z,17.20
2018-06-23T10:35:14.115Z,17.30
2018-06-23T10:37:42.597Z,17.30
2018-06-23T10:40:11.375Z,17.20
2018-06-23T10:42:39.852Z,17.30
2018-06-23T10:45:08.474Z,17.30
2018-06-23T10:47:37.009Z,17.50
2018-06-23T10:50:05.922Z,17.60
2018-06-23T10:52:34.551Z,17.70
2018-06-23T10:55:03.375Z,17.70
2018-06-23T10:57:31.857Z,17.60
2018-06-23T11:00:00.337Z,17.60
2018-06-23T11:02:28.831Z,17.60
2018-06-23T11:07:25.517Z,18.00
2018-06-23T11:09:53.976Z,18.00
2018-06-23T11:12:22.445Z,18.00
2018-06-23T11:14:51.077Z,17.90
2018-06-23T11:17:19.596Z,17.90
2018-06-23T11:19:48.119Z,18.10
2018-06-23T11:24:44.838Z,18.40
2018-06-23T11:27:13.238Z,18.70
2018-06-23T11:29:42.065Z,18.80
2018-06-23T11:32:10.671Z,18.80
2018-06-23T11:34:39.096Z,18.90
2018-06-23T11:37:07.571Z,19.00
2018-06-23T11:39:36.134Z,19.00
2018-06-23T11:42:04.658Z,19.10
2018-06-23T11:44:33.122Z,18.90
2018-06-23T11:47:01.647Z,18.80
2018-06-23T11:49:30.156Z,18.70
2018-06-23T11:54:26.824Z,18.90
2018-06-23T11:56:55.382Z,19.00
2018-06-23T11:59:23.867Z,19.00
2018-06-23T12:01:52.553Z,19.00
2018-06-23T12:04:23.694Z,18.90
2018-06-23T12:06:52.180Z,18.90
2018-06-23T12:09:21.447Z,18.80
2018-06-23T12:11:50.236Z,18.70
2018-06-23T12:14:18.751Z,18.70
2018-06-23T12:16:47.352Z,18.80
2018-06-23T12:19:16.077Z,19.00
2018-06-23T12:21:44.666Z,18.90
2018-06-23T12:24:13.143Z,18.70
2018-06-23T12:29:09.907Z,18.40
2018-06-23T12:34:06.641Z,18.70
2018-06-23T12:36:35.135Z,18.90
2018-06-23T12:39:06.271Z,19.00
2018-06-23T12:41:34.902Z,19.20
2018-06-23T12:44:03.930Z,19.20
2018-06-23T12:46:32.435Z,19.20
2018-06-23T12:49:00.966Z,19.20
2018-06-23T12:53:57.790Z,19.40
2018-06-23T12:56:26.298Z,19.30
2018-06-23T12:58:54.778Z,19.30
2018-06-23T13:01:23.336Z,19.30
2018-06-23T13:03:52.780Z,19.30
2018-06-23T13:06:21.843Z,19.30
2018-06-23T13:08:50.350Z,19.00
2018-06-23T13:11:18.860Z,19.00
2018-06-23T13:13:47.364Z,19.00
2018-06-23T13:16:15.943Z,19.10
2018-06-23T13:18:45.178Z,19.10
2018-06-23T13:21:14.499Z,19.10
2018-06-23T13:23:43.028Z,19.10
2018-06-23T13:26:11.617Z,19.10
2018-06-23T13:28:40.240Z,19.00
2018-06-23T13:31:08.739Z,19.00
2018-06-23T13:33:37.321Z,19.00
2018-06-23T13:36:05.953Z,19.00
2018-06-23T13:38:34.565Z,19.10
2018-06-23T13:41:05.330Z,19.20
2018-06-23T13:43:34.132Z,19.40
2018-06-23T13:46:02.686Z,19.50
2018-06-23T13:48:31.177Z,19.50
2018-06-23T13:50:59.761Z,19.50
2018-06-23T13:53:28.242Z,19.40
2018-06-23T13:55:56.724Z,19.30
2018-06-23T13:58:25.252Z,19.10
2018-06-23T14:00:53.938Z,19.10
2018-06-23T14:03:22.759Z,19.10
2018-06-23T14:05:51.256Z,19.10
2018-06-23T14:08:19.729Z,19.30
2018-06-23T14:10:48.229Z,19.30
2018-06-23T14:13:16.869Z,19.40
2018-06-23T14:15:45.512Z,19.40
2018-06-23T14:18:14.056Z,19.40
2018-06-23T14:20:42.546Z,19.30
2018-06-23T14:23:11.029Z,19.30
2018-06-23T14:25:39.690Z,19.20
2018-06-23T14:28:08.344Z,19.20
2018-06-23T14:30:37.920Z,19.20
2018-06-23T14:33:06.383Z,18.90
2018-06-23T14:35:34.923Z,18.90
2018-06-23T14:38:03.552Z,18.90
2018-06-23T14:40:32.126Z,18.90
2018-06-23T14:43:00.657Z,18.90
2018-06-23T14:45:29.156Z,19.00
2018-06-23T14:47:57.669Z,19.00
2018-06-23T14:50:26.166Z,19.00
2018-06-23T14:52:54.767Z,18.90
2018-06-23T14:55:23.283Z,18.90
2018-06-23T14:57:51.837Z,18.80
2018-06-23T15:00:20.418Z,18.70
2018-06-23T15:02:49.046Z,18.70
2018-06-23T15:05:17.562Z,18.70
2018-06-23T15:07:46.200Z,18.70
2018-06-23T15:10:26.085Z,18.70
2018-06-23T15:13:06.218Z,18.60
2018-06-23T15:15:35.334Z,18.70
2018-06-23T15:18:03.938Z,18.70
2018-06-23T15:20:32.473Z,18.70
2018-06-23T15:23:01.019Z,18.80
2018-06-23T15:25:29.535Z,18.80
2018-06-23T15:30:26.224Z,18.90
2018-06-23T15:32:54.682Z,18.80
2018-06-23T15:35:23.176Z,18.80
2018-06-23T15:37:52.079Z,18.70
2018-06-23T15:40:21.792Z,18.70
2018-06-23T15:42:50.415Z,18.60
2018-06-23T15:45:19.009Z,18.60
2018-06-23T15:47:47.559Z,18.60
2018-06-23T15:50:16.497Z,18.50
2018-06-23T15:52:45.212Z,18.40
2018-06-23T15:55:13.691Z,18.30
2018-06-23T15:57:42.723Z,18.20
2018-06-23T16:00:11.325Z,18.10
2018-06-23T16:02:39.957Z,18.10
2018-06-23T16:05:08.524Z,18.10
2018-06-23T16:07:36.997Z,18.00
2018-06-23T16:10:09.195Z,18.00
2018-06-23T16:12:37.660Z,18.00
2018-06-23T16:15:06.122Z,17.90
2018-06-23T16:17:34.712Z,17.90
2018-06-23T16:20:03.270Z,17.90
2018-06-23T16:22:32.097Z,17.90
2018-06-23T16:25:00.590Z,17.90
2018-06-23T16:27:29.283Z,17.90
2018-06-23T16:29:57.777Z,17.80
2018-06-23T16:32:26.380Z,17.70
2018-06-23T16:34:55.058Z,17.70
2018-06-23T16:37:23.511Z,17.70
2018-06-23T16:39:52.082Z,17.70
2018-06-23T16:42:20.805Z,17.70
2018-06-23T16:44:49.417Z,17.60
2018-06-23T16:47:17.926Z,17.60
2018-06-23T16:49:46.426Z,17.70
2018-06-23T16:52:15.069Z,17.60
2018-06-23T16:54:43.588Z,17.60
2018-06-23T16:57:12.421Z,17.60
2018-06-23T16:59:41.158Z,17.50
2018-06-23T17:02:09.795Z,17.40
2018-06-23T17:04:38.269Z,17.30
2018-06-23T17:07:06.905Z,17.30
2018-06-23T17:09:35.694Z,17.20
2018-06-23T17:12:04.307Z,17.10
2018-06-23T17:14:32.741Z,17.10
2018-06-23T17:17:01.431Z,17.00
2018-06-23T17:19:29.959Z,16.90
2018-06-23T17:21:58.448Z,17.00
2018-06-23T17:24:27.070Z,16.90
2018-06-23T17:26:55.573Z,16.90
2018-06-23T17:29:24.202Z,16.80
2018-06-23T17:31:52.713Z,16.80
2018-06-23T17:34:21.202Z,16.80
2018-06-23T17:36:49.696Z,16.80
2018-06-23T17:39:18.126Z,16.80
2018-06-23T17:41:46.702Z,16.80
2018-06-23T17:44:15.288Z,16.80
2018-06-23T17:49:12.009Z,16.70
2018-06-23T17:51:40.459Z,16.70
2018-06-23T17:54:08.996Z,16.70
2018-06-23T17:56:37.465Z,16.80
2018-06-23T17:59:06.290Z,16.70
2018-06-23T18:01:34.751Z,16.70
2018-06-23T18:04:03.863Z,16.70
2018-06-23T18:06:32.532Z,16.60
2018-06-23T18:09:00.922Z,16.60
2018-06-23T18:11:29.373Z,16.60
2018-06-23T18:13:57.844Z,16.50
2018-06-23T18:16:26.309Z,16.50
2018-06-23T18:18:54.754Z,16.50
2018-06-23T18:21:23.186Z,16.40
2018-06-23T18:23:51.689Z,16.40
2018-06-23T18:26:20.208Z,16.40
2018-06-23T18:28:48.663Z,16.40
2018-06-23T18:31:17.121Z,16.30
2018-06-23T18:33:45.799Z,16.20
2018-06-23T18:36:14.281Z,16.20
2018-06-23T18:38:42.905Z,16.10
2018-06-23T18:41:11.401Z,16.10
2018-06-23T18:43:39.869Z,16.10
2018-06-23T18:46:08.447Z,16.00
2018-06-23T18:48:36.971Z,16.00
2018-06-23T18:51:05.503Z,16.00
2018-06-23T18:53:34.032Z,16.00
2018-06-23T18:56:02.526Z,16.00
2018-06-23T18:58:31.106Z,16.00
2018-06-23T19:00:59.691Z,15.90
2018-06-23T19:03:28.285Z,15.90
2018-06-23T19:05:57.160Z,15.80
2018-06-23T19:08:25.746Z,15.70
2018-06-23T19:10:54.297Z,15.60
2018-06-23T19:13:22.778Z,15.60
2018-06-23T19:15:51.346Z,15.50
2018-06-23T19:18:19.892Z,15.50
2018-06-23T19:20:48.444Z,15.50
2018-06-23T19:23:17.058Z,15.50
2018-06-23T19:25:45.595Z,15.40
2018-06-23T19:28:14.092Z,15.40
2018-06-23T19:30:42.585Z,15.30
2018-06-23T19:33:11.082Z,15.20
2018-06-23T19:35:39.614Z,15.20
2018-06-23T19:38:08.204Z,15.10
2018-06-23T19:40:37.300Z,15.10
2018-06-23T19:43:05.834Z,15.10
2018-06-23T19:45:34.448Z,15.20
2018-06-23T19:48:03.083Z,15.20
2018-06-23T19:50:31.961Z,15.20
2018-06-23T19:53:00.461Z,15.20
2018-06-23T19:55:28.899Z,15.10
2018-06-23T19:57:58.396Z,15.10
2018-06-23T20:00:27.200Z,15.00
2018-06-23T20:02:55.757Z,15.00
2018-06-23T20:05:25.493Z,15.00
2018-06-23T20:10:22.681Z,14.90
2018-06-23T20:12:51.170Z,14.80
2018-06-23T20:15:19.837Z,14.80
2018-06-23T20:17:49.206Z,14.80
2018-06-23T20:20:17.795Z,14.80
2018-06-23T20:22:46.310Z,14.80
2018-06-23T20:25:14.979Z,14.70
2018-06-23T20:27:43.561Z,14.70
2018-06-23T20:30:12.121Z,14.70
2018-06-23T20:32:40.698Z,14.70
2018-06-23T20:35:09.209Z,14.60
2018-06-23T20:37:37.822Z,14.60
2018-06-23T20:40:06.319Z,14.60
2018-06-23T20:42:34.892Z,14.50
2018-06-23T20:45:03.437Z,14.40
2018-06-23T20:47:32.122Z,14.40
2018-06-23T20:50:00.507Z,14.30
2018-06-23T20:52:28.980Z,14.20
2018-06-23T20:54:58.072Z,14.20
2018-06-23T20:57:26.764Z,14.10
2018-06-23T20:59:55.488Z,14.00
2018-06-23T21:02:24.152Z,14.00
2018-06-23T21:04:52.682Z,14.00
2018-06-23T21:07:22.127Z,14.00
2018-06-23T21:09:50.725Z,14.10
2018-06-23T21:12:19.273Z,14.00
2018-06-23T21:14:47.754Z,13.90
2018-06-23T21:17:16.284Z,13.90
2018-06-23T21:19:45.478Z,13.90
2018-06-23T21:22:13.979Z,13.90
2018-06-23T21:24:42.459Z,13.90
2018-06-23T21:27:11.278Z,14.00
2018-06-23T21:29:39.817Z,14.00
2018-06-23T21:32:08.328Z,14.00
2018-06-23T21:34:36.887Z,14.10
2018-06-23T21:37:05.417Z,14.10
2018-06-23T21:39:33.898Z,14.10
2018-06-23T21:42:02.388Z,14.10
2018-06-23T21:44:31.201Z,14.10
2018-06-23T21:46:59.858Z,14.00
2018-06-23T21:49:28.350Z,14.00
2018-06-23T21:51:56.862Z,13.90
2018-06-23T21:54:25.405Z,13.90
2018-06-23T21:59:22.030Z,13.90
2018-06-23T22:01:50.517Z,13.90
2018-06-23T22:04:18.967Z,13.90
2018-06-23T22:06:47.445Z,13.90
2018-06-23T22:09:16.048Z,13.80
2018-06-23T22:11:44.487Z,13.70
2018-06-23T22:14:12.979Z,13.60
2018-06-23T22:16:41.589Z,13.50
2018-06-23T22:19:10.068Z,13.50
2018-06-23T22:24:06.713Z,13.50
2018-06-23T22:26:35.223Z,13.50
2018-06-23T22:29:03.744Z,13.40
2018-06-23T22:31:32.232Z,13.30
2018-06-23T22:34:00.716Z,13.30
2018-06-23T22:36:29.194Z,13.20
2018-06-23T22:38:57.671Z,13.20
2018-06-23T22:41:26.184Z,13.20
2018-06-23T22:43:54.647Z,13.20
2018-06-23T22:46:23.124Z,13.30
2018-06-23T22:48:51.976Z,13.30
2018-06-23T22:51:20.458Z,13.20
2018-06-23T22:53:48.966Z,13.20
2018-06-23T22:56:17.433Z,13.20
2018-06-23T22:58:45.879Z,13.20
2018-06-23T23:01:14.345Z,13.10
2018-06-23T23:03:42.933Z,13.00
2018-06-23T23:06:11.443Z,12.90
2018-06-23T23:08:39.913Z,12.80
2018-06-23T23:11:08.445Z,12.80
2018-06-23T23:13:36.885Z,12.80
2018-06-23T23:16:05.756Z,12.80
2018-06-23T23:18:34.285Z,12.80
2018-06-23T23:21:02.849Z,12.80
2018-06-23T23:23:31.311Z,12.70
2018-06-23T23:25:59.775Z,12.60
2018-06-23T23:30:51.096Z,12.50
2018-06-23T23:33:19.567Z,12.50
2018-06-23T23:35:48.055Z,12.40
2018-06-23T23:38:16.495Z,12.50
2018-06-23T23:40:45.027Z,12.50
2018-06-23T23:43:14.084Z,12.60
2018-06-23T23:48:10.733Z,12.60
2018-06-23T23:50:39.261Z,12.60
2018-06-23T23:53:07.782Z,12.70
2018-06-23T23:55:36.237Z,12.70
2018-06-23T23:58:04.764Z,12.60
